Penasco, NM (87553)

1:11 PM MST on December 19, 2014 (GMT -0700)
KNMLLANO2 | Change Station
CLOSE
Current Station
Personal Weather Station
Location: Llano, NM
Elevation: 7805 ft
Nearby Weather Stations

Elev 7805 ft 36.16 °N, 105.70 °W | Updated 2 seconds ago

Clear
Clear
33.4 °F
Feels Like 33 °F
N
1.0
Wind Variable Wind from WSW
Gusts 4.0 mph

Today
High -- | Low -- °F
--% Chance of Precip.
Yesterday
High -- | Low -- °F
Precip. -- in
7:09 AM 4:51 PM
Waning Crescent, 6% visible
Pressure 30.16 in
Visibility 10.0 miles
Clouds Clear
Windchill 33 °F
Dew Point 23 °F
Humidity 65%
Rainfall 0.02 in
Snow Depth Not available.
UV 2.0 out of 12
Pollen 2.20 out of 12
Air Quality Not available.
Flu Activity Not available.
METAR KSKX 191955Z AUTO 33005KT 10SM CLR 01/M07 A3016 RMK AO1

More Conditions Fewer Conditions

Pressure 30.16 in
Visibility 10.0 miles
Clouds Clear
Windchill 33 °F
Dew Point 23 °F
Humidity 65%
Rainfall 0.02 in
Snow Depth Not available.
UV 2.0 out of 12
Pollen 2.20 out of 12
Air Quality Not available.
Flu Activity Not available.
METAR KSKX 191955Z AUTO 33005KT 10SM CLR 01/M07 A3016 RMK AO1

More Conditions Fewer Conditions

10-Day Weather Forecast

Almanac

Astronomy

Dec. 19, 2014 Rise Set
Actual Time
Civil Twilight
Nautical Twilight
Astronomical Twilight
Moon
Length of Visible Light
Length of Day
Tomorrow will be .
, % of the Moon is Illuminated

Today's Extremes

State Highs State Lows

Community

WunderPhotos

Upload Photos

1,779,048 photos uploaded!

WunderBlogs® & News

Nearby

Air Quality

  Air Quality AQ Index Pollutant
Not available.

Snow Depth

Station Depth Elevation

Earthquake Activity

City Distance Mag. Time & Date
Minimum magnitude displayed is 2.5.

Coastal Water Temperatures

Place Temperature

Nearby Weather Stations